Salto, Uruguay

1:37 PM UYT on September 01, 2015 (GMT -0300)
ZONA ESTE DE SALTO URUGUAY | | Change Station
CLOSE
Current Station
Personal Weather Station
Location: Salto, DEPARTAMENTO DE SALTO
Elevation: 92 ft
Nearby Weather Stations

Elev 92 ft 31.38 °S, 57.95 °W | Updated 7 minutes ago

Clear
Clear
62.6 °F
Feels Like 62.6 °F
N
0.0
Wind Variable Wind from NW
Gusts 0.0 mph

Today
High -- | Low -- °F
--% Chance of Precip.
Yesterday
High -- | Low -- °F
Precip. -- in
7:08 AM 6:35 PM
Waning Gibbous, 88% visible
Pressure 30.33 in
Visibility -9999.0 miles
Clouds
Dew Point 41 °F
Humidity 45%
Rainfall 0.00 in
Snow Depth Not available.
UV 0.0 out of 12
Pollen Not available.
Air Quality Not available.
Flu Activity Not available.
METAR SUSO 011600Z 14012G22KT CAVOK 15/03 Q1027
Pressure 30.33 in
Visibility -9999.0 miles
Clouds
Dew Point 41 °F
Humidity 45%
Rainfall 0.00 in
Snow Depth Not available.
UV 0.0 out of 12
Pollen Not available.
Air Quality Not available.
Flu Activity Not available.
METAR SUSO 011600Z 14012G22KT CAVOK 15/03 Q1027

10-Day Weather Forecast

×

Almanac

Astronomy

Sep. 01, 2015 Rise Set
Actual Time
Civil Twilight
Nautical Twilight
Astronomical Twilight
Moon
Length of Visible Light
Length of Day
Tomorrow will be .
, % of the Moon is Illuminated

Today's Extremes

Country Highs Country Lows

Community

WunderPhotos

Upload Photos

1,851,548 photos uploaded!

WunderBlogs® & News

Nearby

Air Quality

  Air Quality AQ Index Pollutant
Not available.

Snow Depth

Station Depth Elevation

Earthquake Activity

City Distance Mag. Time & Date
Minimum magnitude displayed is 2.5.

Coastal Water Temperatures

Place Temperature

Stations

Nearby Weather Stations

Station Location Temp. Windchill Dew Point Humidity Wind Precip. Elev Updated Type